Holton le Clay, United Kingdom
Current Conditions -  °F | °C
As of 3:50 PM on Friday 19 Dec 2014 (Local Time) from EGXS Reporting Station
Few Clouds Few Clouds  
Wind Chill: 38°   Ceiling: Unl
Heat Index: 45°   Visibility: 6mi
Dew Point: 36°   Wind: 13mph
Humidity: 71%   Direction: 240°WSW
Pressure: 29.88"   Gusts: NA
Location:  53.51°N, 0.06°W
Report Text: EGXS 191550Z AUTO 24011KT 9999 // FEW038/// 07/02 Q1012
Loading
Personal Weather Stations






























Interactive Weather Map New forecast layout! Learn more

10-Day Weather Forecast

Advertisements
Track Severe Weather on mobile